createdAt,value
2017-12-08T00:00:18.723Z,4.37
2017-12-08T00:02:46.481Z,3.53
2017-12-08T00:05:14.290Z,4.55
2017-12-08T00:07:42.034Z,3.92
2017-12-08T00:10:09.784Z,5.05
2017-12-08T00:12:37.608Z,5.20
2017-12-08T00:15:05.402Z,5.05
2017-12-08T00:17:33.152Z,4.80
2017-12-08T00:20:00.961Z,4.43
2017-12-08T00:22:29.471Z,4.57
2017-12-08T00:24:57.219Z,4.00
2017-12-08T00:27:25.023Z,4.28
2017-12-08T00:29:52.771Z,3.62
2017-12-08T00:32:21.291Z,3.65
2017-12-08T00:34:49.094Z,4.50
2017-12-08T00:37:16.838Z,4.15
2017-12-08T00:39:44.588Z,3.60
2017-12-08T00:42:12.392Z,4.10
2017-12-08T00:44:40.903Z,3.37
2017-12-08T00:47:08.662Z,4.40
2017-12-08T00:49:36.469Z,4.75
2017-12-08T00:52:04.226Z,3.78
2017-12-08T00:54:31.973Z,3.62
2017-12-08T00:56:59.959Z,3.83
2017-12-08T00:59:27.713Z,4.07
2017-12-08T01:01:55.458Z,4.40
2017-12-08T01:04:23.264Z,4.25
2017-12-08T01:06:51.784Z,4.25
2017-12-08T01:09:19.579Z,3.95
2017-12-08T01:11:47.390Z,3.97
2017-12-08T01:14:15.139Z,3.92
2017-12-08T01:16:43.656Z,3.83
2017-12-08T01:19:11.455Z,3.60
2017-12-08T01:21:39.202Z,3.45
2017-12-08T01:24:07.715Z,3.72
2017-12-08T01:26:36.280Z,3.58
2017-12-08T01:29:04.032Z,3.75
2017-12-08T01:31:31.781Z,4.18
2017-12-08T01:33:59.591Z,3.87
2017-12-08T01:36:28.136Z,3.67
2017-12-08T01:38:55.883Z,4.00
2017-12-08T01:41:23.687Z,3.20
2017-12-08T01:43:52.210Z,3.58
2017-12-08T01:46:19.972Z,4.05
2017-12-08T01:48:47.776Z,4.05
2017-12-08T01:51:15.643Z,3.25
2017-12-08T01:53:44.195Z,3.95
2017-12-08T01:56:11.996Z,3.22
2017-12-08T01:58:40.524Z,3.30
2017-12-08T02:01:08.267Z,4.80
2017-12-08T02:03:36.076Z,3.15
2017-12-08T02:06:03.831Z,3.70
2017-12-08T02:08:31.607Z,4.22
2017-12-08T02:10:59.414Z,3.40
2017-12-08T02:13:27.159Z,4.20
2017-12-08T02:15:55.680Z,3.75
2017-12-08T02:18:23.496Z,4.10
2017-12-08T02:20:52.050Z,3.10
2017-12-08T02:23:19.829Z,3.83
2017-12-08T02:25:48.427Z,3.30
2017-12-08T02:28:16.968Z,3.62
2017-12-08T02:30:44.735Z,3.70
2017-12-08T02:33:12.539Z,3.92
2017-12-08T02:35:40.320Z,3.92
2017-12-08T02:38:08.066Z,3.67
2017-12-08T02:40:35.879Z,4.18
2017-12-08T02:43:03.641Z,3.40
2017-12-08T02:45:31.398Z,3.80
2017-12-08T02:47:59.199Z,3.20
2017-12-08T02:50:27.742Z,3.00
2017-12-08T02:52:55.498Z,3.50
2017-12-08T02:55:23.300Z,3.40
2017-12-08T02:57:51.826Z,3.90
2017-12-08T03:00:20.440Z,3.08
2017-12-08T03:02:48.247Z,4.28
2017-12-08T03:05:16.009Z,2.95
2017-12-08T03:07:43.755Z,2.80
2017-12-08T03:10:11.569Z,3.67
2017-12-08T03:12:39.319Z,3.50
2017-12-08T03:15:07.068Z,3.25
2017-12-08T03:17:34.883Z,3.40
2017-12-08T03:20:03.423Z,2.95
2017-12-08T03:22:31.231Z,3.65
2017-12-08T03:24:59.807Z,3.20
2017-12-08T03:27:28.330Z,2.92
2017-12-08T03:29:56.087Z,3.22
2017-12-08T03:32:23.888Z,3.05
2017-12-08T03:34:51.644Z,2.90
2017-12-08T03:37:19.412Z,2.62
2017-12-08T03:39:47.227Z,3.30
2017-12-08T03:42:15.004Z,3.28
2017-12-08T03:44:42.755Z,3.75
2017-12-08T03:47:10.563Z,2.87
2017-12-08T03:49:38.328Z,4.35
2017-12-08T03:52:06.076Z,4.47
2017-12-08T03:54:33.884Z,5.55
2017-12-08T03:57:02.407Z,4.10
2017-12-08T03:59:30.181Z,4.47
2017-12-08T04:01:58.011Z,4.87
2017-12-08T04:04:25.764Z,7.10
2017-12-08T04:06:53.516Z,7.43
2017-12-08T04:09:21.316Z,5.03
2017-12-08T04:11:49.072Z,4.25
2017-12-08T04:14:16.823Z,4.45
2017-12-08T04:16:44.632Z,3.83
2017-12-08T04:19:12.375Z,4.47
2017-12-08T04:21:40.120Z,3.20
2017-12-08T04:24:07.940Z,3.58
2017-12-08T04:26:36.461Z,4.10
2017-12-08T04:29:04.221Z,4.87
2017-12-08T04:31:32.239Z,3.92
2017-12-08T04:34:00.756Z,13.70
2017-12-08T04:36:28.522Z,3.70
2017-12-08T04:38:56.367Z,4.35
2017-12-08T04:41:24.119Z,4.75
2017-12-08T04:43:52.644Z,3.70
2017-12-08T04:46:20.454Z,3.87
2017-12-08T04:48:48.980Z,4.18
2017-12-08T04:51:16.737Z,2.90
2017-12-08T04:53:44.539Z,4.72
2017-12-08T04:56:12.292Z,5.18
2017-12-08T04:58:40.048Z,3.90
2017-12-08T05:01:07.851Z,4.30
2017-12-08T05:03:36.367Z,4.25
2017-12-08T05:06:04.139Z,4.82
2017-12-08T05:08:32.011Z,3.83
2017-12-08T05:10:59.763Z,4.32
2017-12-08T05:13:27.523Z,5.47
2017-12-08T05:15:55.339Z,4.37
2017-12-08T05:18:23.856Z,4.57
2017-12-08T05:20:51.640Z,5.22
2017-12-08T05:23:19.464Z,5.22
2017-12-08T05:25:47.220Z,5.50
2017-12-08T05:28:14.984Z,5.03
2017-12-08T05:30:42.813Z,4.82
2017-12-08T05:33:10.580Z,4.20
2017-12-08T05:35:39.095Z,5.50
2017-12-08T05:38:06.904Z,4.68
2017-12-08T05:40:34.656Z,5.57
2017-12-08T05:43:02.401Z,5.30
2017-12-08T05:45:30.221Z,6.00
2017-12-08T05:47:58.741Z,6.00
2017-12-08T05:50:26.494Z,5.50
2017-12-08T05:52:54.296Z,5.40
2017-12-08T05:55:22.043Z,6.22
2017-12-08T05:57:49.787Z,6.03
2017-12-08T06:00:17.588Z,6.37
2017-12-08T06:02:45.360Z,6.35
2017-12-08T06:05:13.888Z,7.00
2017-12-08T06:07:41.694Z,6.62
2017-12-08T06:10:09.447Z,7.22
2017-12-08T06:12:37.226Z,6.15
2017-12-08T06:15:05.836Z,6.53
2017-12-08T06:17:33.586Z,7.03
2017-12-08T06:20:01.339Z,5.15
2017-12-08T06:22:29.936Z,7.10
2017-12-08T06:24:57.686Z,7.03
2017-12-08T06:27:26.209Z,5.55
2017-12-08T06:29:54.058Z,6.32
2017-12-08T06:32:21.847Z,6.37
2017-12-08T06:34:49.612Z,6.35
2017-12-08T06:37:17.419Z,7.37
2017-12-08T06:39:45.166Z,6.95
2017-12-08T06:42:13.682Z,6.95
2017-12-08T06:44:41.487Z,4.95
2017-12-08T06:47:09.226Z,5.20
2017-12-08T06:49:36.967Z,4.60
2017-12-08T06:52:04.793Z,4.50
2017-12-08T06:54:33.312Z,5.15
2017-12-08T06:57:01.064Z,4.82
2017-12-08T06:59:28.883Z,4.60
2017-12-08T07:01:56.646Z,4.80
2017-12-08T07:04:24.411Z,5.62
2017-12-08T07:06:52.224Z,5.40
2017-12-08T07:09:20.000Z,6.25
2017-12-08T07:11:47.774Z,5.28
2017-12-08T07:14:15.592Z,5.10
2017-12-08T07:16:43.367Z,4.62
2017-12-08T07:19:11.150Z,3.60
2017-12-08T07:21:38.973Z,5.35
2017-12-08T07:24:06.732Z,5.18
2017-12-08T07:26:34.489Z,4.32
2017-12-08T07:29:03.067Z,3.83
2017-12-08T07:31:31.591Z,4.15
2017-12-08T07:33:59.347Z,4.00
2017-12-08T07:36:27.159Z,3.90
2017-12-08T07:38:55.690Z,4.22
2017-12-08T07:41:23.452Z,3.92
2017-12-08T07:43:51.264Z,3.65
2017-12-08T07:46:19.796Z,3.70
2017-12-08T07:48:47.552Z,3.92
2017-12-08T07:51:15.372Z,3.58
2017-12-08T07:53:43.896Z,4.05
2017-12-08T07:56:11.652Z,3.10
2017-12-08T07:58:42.240Z,3.60
2017-12-08T08:01:10.756Z,3.30
2017-12-08T08:03:38.508Z,3.80
2017-12-08T08:06:06.308Z,4.53
2017-12-08T08:08:34.060Z,3.22
2017-12-08T08:11:01.827Z,9.80
2017-12-08T08:13:29.746Z,3.70
2017-12-08T08:15:57.516Z,3.30
2017-12-08T08:18:25.283Z,3.03
2017-12-08T08:20:53.104Z,2.97
2017-12-08T08:23:20.850Z,3.10
2017-12-08T08:25:48.617Z,3.20
2017-12-08T08:28:16.449Z,2.83
2017-12-08T08:30:44.204Z,3.95
2017-12-08T08:33:11.959Z,4.40
2017-12-08T08:35:39.787Z,3.47
2017-12-08T08:38:08.308Z,4.62
2017-12-08T08:40:36.060Z,3.37
2017-12-08T08:43:03.901Z,3.83
2017-12-08T08:45:32.425Z,3.80
2017-12-08T08:48:00.195Z,4.00
2017-12-08T08:50:28.016Z,3.50
2017-12-08T08:52:55.812Z,4.80
2017-12-08T08:55:23.569Z,4.72
2017-12-08T08:57:51.375Z,4.75
2017-12-08T09:00:19.148Z,4.75
2017-12-08T09:02:47.686Z,4.95
2017-12-08T09:05:15.504Z,4.37
2017-12-08T09:07:44.034Z,4.10
2017-12-08T09:10:11.804Z,5.30
2017-12-08T09:12:39.655Z,4.05
2017-12-08T09:15:07.407Z,5.70
2017-12-08T09:17:35.980Z,6.00
2017-12-08T09:20:03.820Z,4.78
2017-12-08T09:22:31.571Z,5.03
2017-12-08T09:25:00.084Z,5.37
2017-12-08T09:27:27.912Z,12.57
2017-12-08T09:29:56.455Z,9.18
2017-12-08T09:32:24.222Z,8.63
2017-12-08T09:34:52.040Z,24.48
2017-12-08T09:37:19.790Z,14.70
2017-12-08T09:39:47.565Z,18.27
2017-12-08T09:42:15.385Z,20.67
2017-12-08T09:44:43.135Z,17.60
2017-12-08T09:47:10.891Z,11.90
2017-12-08T09:49:38.696Z,14.65
2017-12-08T09:52:06.460Z,9.95
2017-12-08T09:54:34.212Z,9.90
2017-12-08T09:57:02.801Z,9.75
2017-12-08T09:59:30.575Z,13.77
2017-12-08T10:01:58.331Z,14.95
2017-12-08T10:04:26.143Z,8.73
2017-12-08T10:06:53.899Z,10.80
2017-12-08T10:09:21.670Z,8.13
2017-12-08T10:11:49.516Z,6.78
2017-12-08T10:14:17.266Z,7.95
2017-12-08T10:16:45.040Z,7.32
2017-12-08T10:19:12.852Z,6.87
2017-12-08T10:21:41.391Z,6.72
2017-12-08T10:24:09.157Z,8.75
2017-12-08T10:26:36.964Z,9.05
2017-12-08T10:29:04.713Z,8.70
2017-12-08T10:31:33.256Z,8.80
2017-12-08T10:34:01.075Z,10.55
2017-12-08T10:36:28.835Z,7.45
2017-12-08T10:38:56.578Z,7.25
2017-12-08T10:41:25.155Z,8.55
2017-12-08T10:43:53.689Z,9.35
2017-12-08T10:46:21.492Z,12.10
2017-12-08T10:48:50.088Z,9.27
2017-12-08T10:51:18.611Z,9.20
2017-12-08T10:53:46.391Z,9.70
2017-12-08T10:56:14.212Z,13.25
2017-12-08T10:58:41.972Z,9.65
2017-12-08T11:01:09.757Z,10.35
2017-12-08T11:03:37.587Z,10.07
2017-12-08T11:06:05.344Z,9.02
2017-12-08T11:08:33.866Z,9.52
2017-12-08T11:11:01.676Z,9.90
2017-12-08T11:13:30.206Z,10.13
2017-12-08T11:15:57.976Z,9.45
2017-12-08T11:18:25.788Z,10.25
2017-12-08T11:20:54.335Z,9.35
2017-12-08T11:23:22.083Z,9.77
2017-12-08T11:25:49.892Z,9.27
2017-12-08T11:28:18.403Z,8.38
2017-12-08T11:30:46.152Z,9.40
2017-12-08T11:33:13.967Z,11.63
2017-12-08T11:35:41.732Z,10.52
2017-12-08T11:38:09.491Z,8.77
2017-12-08T11:40:37.304Z,8.20
2017-12-08T11:43:05.069Z,11.68
2017-12-08T11:45:32.819Z,9.43
2017-12-08T11:48:00.624Z,9.15
2017-12-08T11:50:28.381Z,8.85
2017-12-08T11:52:56.136Z,8.93
2017-12-08T11:55:23.936Z,9.30
2017-12-08T11:57:51.692Z,11.43
2017-12-08T12:00:19.428Z,9.68
2017-12-08T12:02:47.213Z,10.00
2017-12-08T12:05:14.941Z,9.68
2017-12-08T12:07:42.683Z,8.55
2017-12-08T12:10:10.489Z,8.15
2017-12-08T12:12:38.241Z,7.30
2017-12-08T12:15:06.031Z,9.00
2017-12-08T12:17:34.619Z,7.53
2017-12-08T12:20:03.149Z,7.65
2017-12-08T12:22:30.900Z,7.85
2017-12-08T12:24:58.749Z,8.05
2017-12-08T12:27:26.496Z,8.02
2017-12-08T12:29:55.006Z,9.43
2017-12-08T12:32:22.812Z,8.60
2017-12-08T12:34:50.576Z,9.85
2017-12-08T12:37:18.329Z,8.75
2017-12-08T12:39:46.139Z,9.98
2017-12-08T12:42:13.895Z,10.45
2017-12-08T12:44:41.640Z,8.45
2017-12-08T12:47:10.224Z,10.20
2017-12-08T12:49:38.739Z,8.88
2017-12-08T12:52:06.533Z,10.13
2017-12-08T12:54:34.349Z,12.50
2017-12-08T12:57:02.113Z,10.20
2017-12-08T12:59:29.879Z,10.57
2017-12-08T13:01:57.691Z,12.13
2017-12-08T13:04:25.696Z,11.30
2017-12-08T13:06:53.820Z,14.77
2017-12-08T13:09:22.415Z,14.82
2017-12-08T13:11:50.291Z,13.60
2017-12-08T13:14:19.979Z,15.48
2017-12-08T13:16:49.463Z,12.57
2017-12-08T13:19:18.620Z,12.10
2017-12-08T13:21:47.956Z,11.93
2017-12-08T13:24:17.357Z,5.12
2017-12-08T13:26:46.756Z,4.45
2017-12-08T13:29:14.736Z,4.43
2017-12-08T13:31:42.545Z,4.07
2017-12-08T13:34:10.328Z,4.55
2017-12-08T13:36:38.120Z,5.78
2017-12-08T13:39:06.054Z,6.00
2017-12-08T13:41:33.911Z,5.22
2017-12-08T13:44:01.760Z,6.70
2017-12-08T13:46:30.583Z,4.65
2017-12-08T13:49:00.239Z,6.45
2017-12-08T13:51:29.561Z,6.37
2017-12-08T14:07:36.533Z,8.93
2017-12-08T14:10:09.701Z,8.48
2017-12-08T14:12:39.682Z,8.70
2017-12-08T14:15:08.834Z,10.05
2017-12-08T14:17:40.485Z,9.23
2017-12-08T14:20:10.459Z,7.93
2017-12-08T14:22:39.147Z,9.80
2017-12-08T14:25:07.042Z,12.98
2017-12-08T14:27:34.831Z,12.95
2017-12-08T14:30:02.696Z,8.38
2017-12-08T14:32:30.588Z,9.57
2017-12-08T14:34:59.184Z,8.55
2017-12-08T14:37:26.972Z,8.50
2017-12-08T14:39:54.827Z,9.50
2017-12-08T14:42:22.608Z,8.30
2017-12-08T14:44:51.139Z,7.40
2017-12-08T14:47:19.760Z,8.45
2017-12-08T14:49:47.511Z,8.32
2017-12-08T14:52:15.260Z,8.45
2017-12-08T14:54:43.066Z,9.68
2017-12-08T14:57:10.822Z,10.70
2017-12-08T14:59:38.580Z,11.90
2017-12-08T15:02:07.196Z,9.90
2017-12-08T15:04:35.708Z,9.27
2017-12-08T15:07:03.472Z,10.30
2017-12-08T15:09:31.286Z,10.85
2017-12-08T15:11:59.052Z,15.50
2017-12-08T15:14:26.824Z,12.65
2017-12-08T15:16:55.402Z,13.13
2017-12-08T15:19:23.928Z,15.80
2017-12-08T15:21:51.685Z,13.25
2017-12-08T15:24:19.495Z,16.42
2017-12-08T15:26:47.276Z,16.60
2017-12-08T15:29:15.810Z,12.93
2017-12-08T15:31:43.612Z,14.87
2017-12-08T15:34:12.137Z,15.65
2017-12-08T15:36:39.911Z,14.68
2017-12-08T15:39:07.728Z,14.50
2017-12-08T15:41:36.269Z,14.38
2017-12-08T15:44:04.036Z,16.05
2017-12-08T15:46:31.852Z,16.15
2017-12-08T15:48:59.627Z,15.63
2017-12-08T15:51:27.463Z,15.40
2017-12-08T15:53:56.040Z,15.65
2017-12-08T15:56:24.576Z,15.15
2017-12-08T15:58:52.335Z,15.48
2017-12-08T16:01:20.144Z,17.65
2017-12-08T16:03:48.682Z,19.50
2017-12-08T16:06:16.484Z,16.55
2017-12-08T16:08:45.073Z,20.90
2017-12-08T16:11:12.885Z,20.88
2017-12-08T16:13:40.644Z,18.90
2017-12-08T16:16:08.461Z,18.58
2017-12-08T16:18:36.245Z,19.50
2017-12-08T16:21:04.004Z,17.00
2017-12-08T16:23:31.821Z,17.12
2017-12-08T16:25:59.757Z,17.58
2017-12-08T16:28:27.522Z,16.02
2017-12-08T16:30:55.336Z,16.10
2017-12-08T16:33:23.091Z,17.50
2017-12-08T16:35:51.634Z,15.80
2017-12-08T16:38:20.458Z,17.98
2017-12-08T16:40:48.301Z,15.98
2017-12-08T16:43:16.055Z,21.70
2017-12-08T16:45:44.008Z,17.37
2017-12-08T16:48:11.787Z,15.88
2017-12-08T16:50:39.609Z,14.75
2017-12-08T16:53:07.438Z,15.70
2017-12-08T16:55:35.959Z,15.73
2017-12-08T16:58:03.716Z,14.77
2017-12-08T17:00:31.713Z,12.85
2017-12-08T17:02:59.495Z,11.95
2017-12-08T17:05:28.037Z,11.50
2017-12-08T17:07:55.880Z,11.07
2017-12-08T17:10:23.626Z,11.05
2017-12-08T17:12:51.379Z,13.07
2017-12-08T17:15:19.212Z,13.38
2017-12-08T17:17:46.971Z,10.75
2017-12-08T17:20:14.803Z,11.15
2017-12-08T17:22:42.609Z,8.38
2017-12-08T17:25:10.363Z,10.10
2017-12-08T17:27:38.143Z,12.37
2017-12-08T17:30:06.759Z,9.80
2017-12-08T17:32:34.513Z,10.73
2017-12-08T17:35:02.289Z,11.52
2017-12-08T17:37:30.108Z,11.48
2017-12-08T17:39:58.648Z,13.70
2017-12-08T17:42:26.420Z,12.23
2017-12-08T17:44:54.237Z,12.80
2017-12-08T17:47:21.995Z,12.02
2017-12-08T17:49:49.751Z,13.65
2017-12-08T17:52:19.678Z,13.60
2017-12-08T17:54:47.567Z,12.63
2017-12-08T17:57:15.513Z,12.93
2017-12-08T17:59:43.725Z,11.45
2017-12-08T18:02:11.561Z,13.65
2017-12-08T18:04:42.492Z,15.27
2017-12-08T18:07:10.366Z,14.80
2017-12-08T18:09:42.868Z,13.15
2017-12-08T18:12:18.048Z,13.43
2017-12-08T18:14:47.722Z,12.02
2017-12-08T18:17:15.991Z,12.52
2017-12-08T18:19:45.851Z,14.68
2017-12-08T18:22:13.607Z,12.10
2017-12-08T18:24:41.359Z,12.30
2017-12-08T18:27:09.498Z,14.13
2017-12-08T18:29:38.231Z,9.32
2017-12-08T18:32:07.318Z,12.55
2017-12-08T18:34:37.266Z,10.35
2017-12-08T18:37:06.333Z,10.75
2017-12-08T18:39:34.520Z,10.80
2017-12-08T18:44:46.465Z,13.80
2017-12-08T18:47:16.753Z,14.50
2017-12-08T18:49:46.988Z,13.93
2017-12-08T18:52:14.743Z,13.30
2017-12-08T18:54:42.564Z,15.20
2017-12-08T18:57:10.340Z,15.95
2017-12-08T18:59:38.097Z,14.85
2017-12-08T19:02:05.919Z,14.90
2017-12-08T19:04:34.443Z,14.73
2017-12-08T19:07:02.261Z,13.45
2017-12-08T19:09:30.845Z,12.27
2017-12-08T19:11:59.369Z,14.32
2017-12-08T19:14:27.134Z,15.25
2017-12-08T19:16:54.961Z,20.33
2017-12-08T19:19:22.732Z,26.45
2017-12-08T19:21:50.498Z,23.25
2017-12-08T19:24:18.515Z,22.65
2017-12-08T19:26:46.308Z,16.67
2017-12-08T19:29:14.832Z,13.40
2017-12-08T19:31:42.649Z,13.50
2017-12-08T19:34:11.185Z,13.90
2017-12-08T19:36:38.941Z,13.23
2017-12-08T19:39:06.747Z,13.75
2017-12-08T19:41:35.269Z,13.40
2017-12-08T19:44:03.032Z,13.13
2017-12-08T19:46:30.966Z,14.32
2017-12-08T19:48:59.850Z,16.48
2017-12-08T19:51:27.680Z,18.35
2017-12-08T19:53:55.507Z,16.15
2017-12-08T19:56:23.268Z,17.55
2017-12-08T19:58:51.608Z,16.27
2017-12-08T20:01:19.460Z,15.18
2017-12-08T20:03:48.076Z,15.15
2017-12-08T20:06:15.860Z,12.73
2017-12-08T20:08:43.748Z,16.17
2017-12-08T20:11:11.601Z,12.90
2017-12-08T20:13:39.439Z,14.13
2017-12-08T20:16:07.262Z,12.98
2017-12-08T20:18:35.836Z,12.20
2017-12-08T20:21:03.695Z,11.70
2017-12-08T20:23:31.593Z,14.20
2017-12-08T20:25:59.365Z,13.68
2017-12-08T20:28:27.948Z,11.80
2017-12-08T20:30:57.305Z,15.80
2017-12-08T20:33:25.961Z,12.15
2017-12-08T20:35:53.737Z,14.50
2017-12-08T20:38:21.595Z,12.75
2017-12-08T20:40:49.360Z,14.98
2017-12-08T20:43:17.140Z,17.67
2017-12-08T20:45:44.947Z,15.10
2017-12-08T20:48:12.708Z,18.12
2017-12-08T20:50:40.493Z,16.80
2017-12-08T20:53:08.318Z,17.45
2017-12-08T20:55:36.096Z,15.32
2017-12-08T20:58:03.852Z,15.50
2017-12-08T21:00:31.671Z,14.32
2017-12-08T21:02:59.424Z,15.02
2017-12-08T21:05:27.208Z,15.27
2017-12-08T21:07:55.935Z,16.40
2017-12-08T21:10:23.710Z,15.70
2017-12-08T21:12:51.512Z,16.30
2017-12-08T21:15:19.343Z,17.05
2017-12-08T21:17:47.104Z,15.40
2017-12-08T21:20:14.917Z,18.55
2017-12-08T21:22:43.506Z,19.12
2017-12-08T21:25:11.323Z,19.73
2017-12-08T21:27:39.106Z,20.83
2017-12-08T21:30:07.710Z,20.10
2017-12-08T21:32:35.496Z,22.90
2017-12-08T21:35:03.275Z,19.50
2017-12-08T21:37:31.088Z,18.62
2017-12-08T21:39:59.612Z,20.30
2017-12-08T21:42:27.372Z,19.60
2017-12-08T21:44:55.188Z,19.67
2017-12-08T21:47:23.740Z,19.80
2017-12-08T21:49:51.503Z,19.00
2017-12-08T21:52:19.316Z,18.65
2017-12-08T21:54:47.185Z,20.10
2017-12-08T21:57:14.961Z,16.80
2017-12-08T21:59:42.916Z,19.30
2017-12-08T22:02:10.813Z,17.87
2017-12-08T22:04:38.598Z,16.65
2017-12-08T22:07:06.407Z,16.73
2017-12-08T22:09:34.174Z,16.40
2017-12-08T22:12:01.932Z,16.10
2017-12-08T22:14:29.808Z,16.45
2017-12-08T22:16:57.588Z,17.05
2017-12-08T22:19:25.347Z,15.65
2017-12-08T22:21:53.168Z,15.10
2017-12-08T22:24:20.923Z,16.00
2017-12-08T22:26:48.700Z,18.48
2017-12-08T22:29:16.512Z,15.13
2017-12-08T22:31:44.293Z,15.40
2017-12-08T22:34:12.820Z,16.67
2017-12-08T22:36:40.740Z,14.55
2017-12-08T22:39:09.258Z,16.20
2017-12-08T22:41:37.023Z,16.80
2017-12-08T22:44:05.025Z,16.83
2017-12-08T22:46:32.800Z,16.50
2017-12-08T22:49:00.555Z,17.20
2017-12-08T22:51:28.395Z,19.80
2017-12-08T22:53:56.928Z,21.80
2017-12-08T22:56:24.705Z,19.23
2017-12-08T22:58:52.524Z,18.12
2017-12-08T23:01:20.281Z,16.20
2017-12-08T23:03:48.039Z,14.20
2017-12-08T23:06:15.861Z,14.35
2017-12-08T23:08:43.621Z,14.38
2017-12-08T23:11:11.424Z,18.80
2017-12-08T23:13:39.235Z,16.23
2017-12-08T23:16:06.987Z,14.90
2017-12-08T23:18:34.745Z,15.32
2017-12-08T23:21:03.339Z,14.60
2017-12-08T23:23:31.097Z,16.45
2017-12-08T23:25:58.860Z,16.15
2017-12-08T23:28:26.672Z,17.37
2017-12-08T23:30:54.428Z,40.47
2017-12-08T23:33:22.472Z,35.35
2017-12-08T23:35:50.307Z,21.65
2017-12-08T23:38:18.829Z,19.52
2017-12-08T23:40:46.586Z,27.15
2017-12-08T23:43:14.399Z,22.35
2017-12-08T23:45:43.757Z,23.08
2017-12-08T23:48:11.516Z,24.37
2017-12-08T23:50:39.327Z,22.62
2017-12-08T23:53:08.282Z,14.13
2017-12-08T23:55:36.053Z,20.92
2017-12-08T23:58:03.875Z,22.87
